Time;durP1;ratioP1;P1;durP2;ratioP2;P2;SDS_P1;SDS_P2;PMS_P1;PMS_P2;Temp;Humidity;BMP_temperature;BMP_pressure;BME280_temperature;BME280_humidity;BME280_pressure;Samples;Min_cycle;Max_cycle;Signal;HPM_P1;HPM_P2
2023/10/28 00:02:02;;;;;;;7.15;1.40;;;;;;;19.64;48.61;99421.22;16111950;19;130052;-45
2023/10/28 00:07:25;;;;;;;3.10;1.10;;;;;;;19.63;48.73;99425.13;16110334;19;130191;-41
2023/10/28 00:12:49;;;;;;;4.20;1.33;;;;;;;19.62;48.50;99426.22;16112769;19;131651;-42
2023/10/28 00:18:11;;;;;;;3.25;1.50;;;;;;;19.60;48.84;99414.59;16107935;19;130087;-42
2023/10/28 00:23:33;;;;;;;4.53;1.33;;;;;;;19.59;48.87;99421.25;16103797;19;131337;-42
2023/10/28 00:28:55;;;;;;;3.75;1.35;;;;;;;19.57;48.50;99415.16;16117022;19;132043;-45
2023/10/28 00:34:17;;;;;;;2.78;1.23;;;;;;;19.58;48.81;99413.22;16112537;19;130075;-43
2023/10/28 00:39:39;;;;;;;3.72;1.23;;;;;;;19.60;48.42;99403.50;16103838;19;130717;-42
2023/10/28 00:45:03;;;;;;;3.38;1.20;;;;;;;19.64;48.67;99403.72;16106053;19;130066;-44
2023/10/28 00:50:27;;;;;;;3.83;1.20;;;;;;;19.65;48.39;99411.78;16110012;19;130420;-42
2023/10/28 00:55:51;;;;;;;5.20;1.23;;;;;;;19.64;48.35;99415.69;16112226;19;130660;-43
2023/10/28 01:01:14;;;;;;;3.92;1.02;;;;;;;19.62;48.32;99411.53;16111356;19;129276;-42
2023/10/28 01:06:38;;;;;;;3.17;1.30;;;;;;;19.58;48.36;99397.41;16114471;19;129962;-43
2023/10/28 01:12:02;;;;;;;5.15;1.25;;;;;;;19.54;48.42;99396.34;16114025;19;131044;-45
2023/10/28 01:17:27;;;;;;;3.65;1.13;;;;;;;19.51;48.61;99388.59;16108524;19;130287;-41
2023/10/28 01:22:49;;;;;;;2.35;0.90;;;;;;;19.48;48.58;99401.09;16101530;19;130233;-41
2023/10/28 01:28:11;;;;;;;2.88;0.75;;;;;;;19.46;48.56;99395.03;16109531;19;129879;-44
2023/10/28 01:33:34;;;;;;;2.65;1.10;;;;;;;19.45;48.42;99395.28;16112133;19;131127;-43
2023/10/28 01:38:56;;;;;;;2.88;0.90;;;;;;;19.42;48.27;99398.66;16107787;19;129977;-41
2023/10/28 01:44:18;;;;;;;2.45;0.75;;;;;;;19.40;48.52;99393.38;16105791;19;130284;-42
2023/10/28 01:49:42;;;;;;;2.97;0.80;;;;;;;19.40;48.27;99389.81;16109591;19;130547;-43
2023/10/28 01:55:04;;;;;;;2.40;0.93;;;;;;;19.37;48.30;99392.03;16106105;19;130435;-42
2023/10/28 02:00:30;;;;;;;1.20;0.57;;;;;;;19.37;48.26;99388.44;16103143;19;131761;-45
2023/10/28 02:05:52;;;;;;;3.22;0.80;;;;;;;19.35;48.72;99391.47;16106536;19;130313;-41
2023/10/28 02:11:14;;;;;;;3.70;0.90;;;;;;;19.33;48.28;99388.16;16104005;19;131228;-42
2023/10/28 02:16:37;;;;;;;3.45;0.80;;;;;;;19.32;48.39;99391.25;16107562;19;129683;-44
2023/10/28 02:21:59;;;;;;;2.53;0.75;;;;;;;19.30;48.64;99382.38;16102826;19;129627;-44
2023/10/28 02:27:34;;;;;;;2.43;0.60;;;;;;;19.27;48.42;99380.16;16106797;19;129686;-45
2023/10/28 02:32:56;;;;;;;1.45;0.80;;;;;;;19.25;48.38;99402.66;16105194;19;131352;-46
2023/10/28 02:38:19;;;;;;;1.25;0.60;;;;;;;19.23;48.38;99388.25;16102419;19;130479;-45
2023/10/28 02:43:41;;;;;;;1.73;0.70;;;;;;;19.22;48.21;99389.34;16104449;19;131534;-41
2023/10/28 02:49:03;;;;;;;2.13;0.50;;;;;;;19.20;48.41;99383.25;16113807;19;129910;-42
2023/10/28 02:54:25;;;;;;;2.70;1.02;;;;;;;19.18;48.45;99391.03;16119688;19;129994;-43
2023/10/28 02:59:47;;;;;;;1.67;0.70;;;;;;;19.17;48.27;99372.75;16121538;19;130922;-42
2023/10/28 03:05:09;;;;;;;1.10;0.45;;;;;;;19.15;48.78;99372.19;16118887;19;130956;-44
2023/10/28 03:10:31;;;;;;;1.23;0.52;;;;;;;19.13;48.38;99372.50;16121003;19;133847;-45
2023/10/28 03:15:53;;;;;;;1.48;0.52;;;;;;;19.12;48.28;99359.75;16121992;19;129544;-41
2023/10/28 03:21:16;;;;;;;1.25;0.52;;;;;;;19.11;48.34;99363.63;16116804;19;130560;-43
2023/10/28 03:26:38;;;;;;;1.33;0.32;;;;;;;19.10;48.32;99358.38;16120584;19;129856;-42
2023/10/28 03:32:00;;;;;;;1.38;0.50;;;;;;;19.08;48.17;99353.94;16124909;19;129430;-41
2023/10/28 03:37:23;;;;;;;1.75;0.50;;;;;;;19.06;48.40;99350.66;16120815;19;130181;-41
2023/10/28 03:42:45;;;;;;;1.27;0.40;;;;;;;19.06;48.58;99350.66;16118999;19;129755;-41
2023/10/28 03:48:07;;;;;;;1.63;0.60;;;;;;;19.05;48.20;99353.69;16123066;19;130624;-44
2023/10/28 03:53:29;;;;;;;1.25;0.40;;;;;;;19.04;48.33;99357.56;16122560;19;130540;-43
2023/10/28 03:58:51;;;;;;;2.15;0.60;;;;;;;19.02;48.29;99349.56;16116716;19;129554;-42
2023/10/28 04:04:13;;;;;;;0.90;0.40;;;;;;;19.00;48.54;99346.25;16117847;19;130288;-46
2023/10/28 04:09:35;;;;;;;1.20;0.60;;;;;;;19.01;48.13;99356.22;16114798;19;129917;-43
2023/10/28 04:14:57;;;;;;;2.15;0.55;;;;;;;18.99;48.61;99349.31;16109172;19;131547;-42
2023/10/28 04:20:20;;;;;;;0.98;0.50;;;;;;;18.97;48.55;99349.56;16109701;19;130051;-41
2023/10/28 04:25:42;;;;;;;1.90;0.80;;;;;;;18.96;48.58;99342.38;16105225;19;131863;-51
2023/10/28 04:31:04;;;;;;;2.67;0.60;;;;;;;18.95;48.49;99354.59;16111848;19;131280;-43
2023/10/28 04:36:26;;;;;;;3.50;0.73;;;;;;;18.96;48.54;99347.91;16116061;19;129858;-43
2023/10/28 04:41:48;;;;;;;1.58;0.40;;;;;;;18.94;48.38;99346.56;16115864;19;129768;-42
2023/10/28 04:47:10;;;;;;;0.65;0.40;;;;;;;18.93;48.26;99340.19;16114037;19;129750;-43
2023/10/28 04:52:31;;;;;;;0.60;0.40;;;;;;;;;;16114436;19;131135;-44
2023/10/28 04:57:54;;;;;;;1.85;0.50;;;;;;;18.91;48.16;99339.66;16115911;19;135693;-42
2023/10/28 05:03:15;;;;;;;1.05;0.57;;;;;;;18.89;48.51;99336.34;16108256;19;129784;-41
2023/10/28 05:08:41;;;;;;;;;;;;;;;18.85;48.28;99329.69;16111804;19;130835;-42
2023/10/28 05:14:03;;;;;;;1.40;0.50;;;;;;;18.87;48.24;99331.09;16111522;19;130977;-41
2023/10/28 05:19:26;;;;;;;2.30;0.60;;;;;;;18.86;48.49;99329.44;16111033;19;129631;-42
2023/10/28 05:24:48;;;;;;;1.17;0.40;;;;;;;18.86;48.27;99328.59;16109405;19;130913;-42
2023/10/28 05:30:11;;;;;;;0.75;0.40;;;;;;;18.86;48.40;99339.69;16108623;19;129703;-41
2023/10/28 05:35:33;;;;;;;2.30;0.73;;;;;;;18.85;48.28;99333.31;16110973;19;130112;-41
2023/10/28 05:40:55;;;;;;;1.63;0.50;;;;;;;18.85;48.33;99327.78;16113664;19;130278;-42
2023/10/28 05:46:21;;;;;;;1.25;0.50;;;;;;;18.86;48.51;99331.38;16109070;19;131055;-41
2023/10/28 05:51:43;;;;;;;1.08;0.45;;;;;;;18.84;48.36;99337.19;16106953;19;130690;-41
2023/10/28 05:57:05;;;;;;;1.48;0.40;;;;;;;18.83;48.07;99340.28;16104304;19;129728;-41
2023/10/28 06:02:27;;;;;;;2.83;0.60;;;;;;;18.82;48.13;99339.44;16101289;19;130472;-42
2023/10/28 06:07:49;;;;;;;1.38;0.57;;;;;;;18.82;48.30;99344.16;16103009;19;132150;-42
2023/10/28 06:13:11;;;;;;;1.00;0.50;;;;;;;18.82;48.39;99344.16;16100725;19;134570;-43
2023/10/28 06:18:33;;;;;;;1.85;0.35;;;;;;;18.81;48.46;99356.34;16103968;19;130140;-41
2023/10/28 06:23:55;;;;;;;1.65;0.57;;;;;;;18.79;48.02;99353.84;16114373;19;131139;-42
2023/10/28 06:29:20;;;;;;;0.90;0.50;;;;;;;18.79;48.30;99353.03;16123720;19;130914;-42
2023/10/28 06:34:42;;;;;;;2.13;0.52;;;;;;;18.80;48.51;99357.47;16121539;19;129961;-42
2023/10/28 06:40:05;;;;;;;1.05;0.50;;;;;;;18.84;48.33;99352.97;16120089;19;130603;-42
2023/10/28 06:45:28;;;;;;;1.75;0.50;;;;;;;18.87;48.37;99355.19;16118833;19;131061;-42
2023/10/28 06:50:50;;;;;;;1.90;0.60;;;;;;;18.88;48.23;99359.63;16120183;19;129607;-43
2023/10/28 06:56:12;;;;;;;1.38;0.50;;;;;;;18.88;48.05;99367.94;16115777;19;133793;-43
2023/10/28 07:01:34;;;;;;;2.60;0.50;;;;;;;18.87;47.89;99363.50;16115748;19;131253;-43
2023/10/28 07:06:56;;;;;;;3.90;0.70;;;;;;;18.85;47.85;99365.72;16119662;19;131373;-43
2023/10/28 07:12:18;;;;;;;2.53;0.80;;;;;;;18.85;48.14;99371.25;16119952;19;131112;-43
2023/10/28 07:17:40;;;;;;;1.70;0.80;;;;;;;18.84;48.20;99366.84;16116159;19;131771;-43
2023/10/28 07:23:02;;;;;;;3.10;0.70;;;;;;;18.84;47.89;99380.69;16115586;19;129529;-42
2023/10/28 07:28:25;;;;;;;1.55;0.60;;;;;;;18.83;48.01;99395.69;16112474;19;131004;-43
2023/10/28 07:33:47;;;;;;;6.80;1.27;;;;;;;18.83;48.11;99395.69;16108136;19;131939;-46
2023/10/28 07:39:09;;;;;;;6.00;0.80;;;;;;;18.80;48.38;99399.84;16113004;19;130256;-44
2023/10/28 07:44:31;;;;;;;1.67;0.60;;;;;;;18.81;47.93;99406.22;16117525;19;129885;-42
2023/10/28 07:49:53;;;;;;;1.95;0.93;;;;;;;18.95;48.19;99417.50;16118498;19;128944;-42
2023/10/28 07:55:15;;;;;;;5.30;0.63;;;;;;;18.92;47.81;99424.44;16113781;19;131531;-45
2023/10/28 08:00:37;;;;;;;4.75;0.90;;;;;;;18.88;47.97;99426.13;16114184;19;131154;-42
2023/10/28 08:06:07;;;;;;;3.28;1.05;;;;;;;18.86;48.23;99434.72;16105559;19;129890;-43
2023/10/28 08:11:35;;;;;;;2.50;0.77;;;;;;;18.82;47.97;99438.34;16109971;19;130866;-42
2023/10/28 08:16:58;;;;;;;3.65;0.73;;;;;;;18.81;47.90;99445.81;16106344;19;130405;-44
2023/10/28 08:22:20;;;;;;;5.32;1.17;;;;;;;18.81;48.04;99442.25;16112340;19;129844;-44
2023/10/28 08:27:45;;;;;;;4.65;1.20;;;;;;;18.81;48.08;99445.81;16118017;19;129937;-42
2023/10/28 08:33:07;;;;;;;4.50;1.13;;;;;;;18.81;48.31;99448.59;16120182;19;129490;-40
2023/10/28 08:38:29;;;;;;;3.28;0.90;;;;;;;18.85;48.02;99451.63;16116580;19;129978;-44
2023/10/28 08:43:51;;;;;;;2.53;0.90;;;;;;;18.86;47.65;99456.06;16118169;19;130766;-42
2023/10/28 08:49:14;;;;;;;5.45;0.80;;;;;;;18.87;47.87;99464.09;16115437;19;129319;-43
2023/10/28 08:54:38;;;;;;;3.40;0.80;;;;;;;18.88;47.81;99470.44;16114566;19;130205;-45
2023/10/28 09:00:00;;;;;;;5.32;0.90;;;;;;;18.87;47.83;99468.78;16109591;19;130432;-43
2023/10/28 09:05:22;;;;;;;3.83;0.90;;;;;;;18.88;47.79;99471.31;16115503;19;131446;-44
2023/10/28 09:10:47;;;;;;;5.07;1.20;;;;;;;18.89;47.64;99472.13;16112309;19;130786;-43
2023/10/28 09:16:09;;;;;;;3.97;1.00;;;;;;;18.91;47.70;99480.97;16109261;19;130468;-46
2023/10/28 09:21:31;;;;;;;3.55;0.90;;;;;;;18.95;47.62;99487.63;16112459;19;132204;-43
2023/10/28 09:26:53;;;;;;;5.20;0.90;;;;;;;19.00;47.74;99478.47;16112364;19;129613;-44
2023/10/28 09:32:18;;;;;;;3.10;0.85;;;;;;;19.00;47.31;99487.59;16107213;19;129927;-43
2023/10/28 09:37:41;;;;;;;3.58;0.73;;;;;;;19.00;47.09;99495.91;16110372;19;130362;-43
2023/10/28 09:43:04;;;;;;;3.97;1.00;;;;;;;19.02;46.99;99493.69;16111185;19;131169;-45
2023/10/28 09:48:31;;;;;;;6.65;1.13;;;;;;;19.02;47.04;99503.91;16108183;19;129727;-43
2023/10/28 09:54:05;;;;;;;3.90;1.33;;;;;;;19.02;46.64;99499.22;16098111;19;129633;-45
2023/10/28 09:59:33;;;;;;;5.15;1.15;;;;;;;19.00;46.67;99506.97;16115850;19;129935;-45
2023/10/28 10:05:00;;;;;;;6.43;0.88;;;;;;;19.00;46.34;99509.75;16110789;19;132044;-45
2023/10/28 10:10:22;;;;;;;4.15;1.20;;;;;;;18.99;46.49;99508.09;16100181;19;130335;-43
2023/10/28 10:15:58;;;;;;;4.40;1.10;;;;;;;19.02;46.54;99503.91;16115704;19;129896;-43
2023/10/28 10:21:20;;;;;;;8.03;0.80;;;;;;;18.98;46.38;99502.84;16113169;19;130849;-40
2023/10/28 10:26:55;;;;;;;6.30;1.35;;;;;;;19.01;45.89;99503.09;16118265;19;130525;-41
2023/10/28 10:32:18;;;;;;;5.78;1.10;;;;;;;18.98;45.92;99509.22;16118621;19;131710;-40
2023/10/28 10:37:40;;;;;;;6.63;1.38;;;;;;;18.97;46.03;99504.78;16120957;19;131333;-40
2023/10/28 10:43:09;;;;;;;4.80;1.45;;;;;;;18.96;46.00;99497.56;16115829;19;130387;-43
2023/10/28 10:48:33;;;;;;;7.25;1.40;;;;;;;18.94;46.00;99497.06;16114668;19;132247;-41
2023/10/28 10:53:55;;;;;;;11.35;1.50;;;;;;;18.97;46.49;99490.09;16120480;19;130557;-40
2023/10/28 10:59:17;;;;;;;13.73;1.90;;;;;;;19.00;46.65;99484.00;16120395;19;134932;-42
2023/10/28 11:04:39;;;;;;;13.93;1.98;;;;;;;19.02;46.54;99482.59;16119643;19;130042;-40
2023/10/28 11:10:04;;;;;;;10.52;2.28;;;;;;;19.03;46.60;99494.50;16112476;19;130729;-41
2023/10/28 11:15:26;;;;;;;17.03;2.17;;;;;;;19.02;46.70;99493.69;16119447;19;129721;-41
2023/10/28 11:20:50;;;;;;;11.13;1.98;;;;;;;19.00;46.41;99495.91;16117699;19;130637;-40
2023/10/28 11:26:18;;;;;;;14.50;1.92;;;;;;;18.99;46.43;99499.78;16111486;19;133175;-40
2023/10/28 11:31:41;;;;;;;13.38;2.00;;;;;;;18.96;46.52;99499.53;16107267;19;130165;-41
2023/10/28 11:37:03;;;;;;;9.38;2.10;;;;;;;18.98;46.64;99498.13;16113369;19;130187;-41
2023/10/28 11:42:25;;;;;;;12.73;2.63;;;;;;;18.98;46.91;99503.66;16121710;19;129663;-39
2023/10/28 11:47:46;;;;;;;12.45;2.20;;;;;;;18.98;46.56;99503.66;16111744;19;130385;-39
2023/10/28 11:53:10;;;;;;;12.23;2.30;;;;;;;18.98;46.41;99495.34;16114622;19;130734;-38
2023/10/28 11:58:32;;;;;;;16.85;2.67;;;;;;;18.95;46.40;99507.03;16113848;19;131108;-39
2023/10/28 12:03:54;;;;;;;10.07;2.20;;;;;;;18.98;46.80;99509.22;16113067;19;129745;-39
2023/10/28 12:09:16;;;;;;;11.27;2.22;;;;;;;18.98;46.60;99519.47;16109956;19;130280;-39
2023/10/28 12:14:38;;;;;;;8.95;1.85;;;;;;;18.98;46.71;99525.84;16110229;19;129679;-39
2023/10/28 12:20:06;;;;;;;12.85;2.13;;;;;;;18.99;46.38;99527.50;16110390;19;131675;-40
2023/10/28 12:25:28;;;;;;;9.13;2.08;;;;;;;18.99;46.36;99533.03;16112045;19;130613;-40
2023/10/28 12:30:51;;;;;;;10.43;1.55;;;;;;;18.98;46.27;99531.38;16113380;19;130983;-39
2023/10/28 12:36:13;;;;;;;8.70;2.20;;;;;;;18.99;46.27;99527.50;16111402;19;129716;-40
2023/10/28 12:41:35;;;;;;;9.13;2.20;;;;;;;18.97;46.46;99528.91;16104956;19;130206;-40
2023/10/28 12:46:57;;;;;;;7.90;2.40;;;;;;;18.95;46.25;99517.25;16111352;19;129748;-40
2023/10/28 12:52:20;;;;;;;8.15;2.17;;;;;;;18.93;46.08;99517.56;16109973;19;130013;-40
2023/10/28 12:57:42;;;;;;;7.07;1.92;;;;;;;18.92;46.05;99521.44;16112304;19;131329;-39
2023/10/28 13:03:06;;;;;;;11.65;2.15;;;;;;;18.90;45.90;99518.13;16110977;19;129879;-40
2023/10/28 13:08:28;;;;;;;8.73;2.67;;;;;;;18.87;45.63;99516.75;16108145;19;130841;-40
2023/10/28 13:13:50;;;;;;;10.82;2.25;;;;;;;18.87;45.30;99513.13;16109675;19;129792;-42
2023/10/28 13:19:13;;;;;;;9.10;2.10;;;;;;;18.88;44.91;99509.25;16108054;19;129986;-39
2023/10/28 13:24:34;;;;;;;7.18;2.03;;;;;;;18.86;45.29;99503.16;16107172;19;130229;-42
2023/10/28 13:29:57;;;;;;;11.80;2.30;;;;;;;18.83;45.16;99510.09;16107400;19;133679;-42
2023/10/28 13:35:18;;;;;;;9.18;2.30;;;;;;;18.82;45.09;99502.09;16106820;19;129308;-42
2023/10/28 13:40:41;;;;;;;7.93;1.85;;;;;;;18.80;44.94;99512.63;16110419;19;130917;-39
2023/10/28 13:46:03;;;;;;;6.93;1.80;;;;;;;18.80;44.97;99512.63;16105234;19;129665;-40
2023/10/28 13:51:26;;;;;;;7.55;2.00;;;;;;;18.77;45.21;99509.28;16101544;19;130319;-40
2023/10/28 13:56:48;;;;;;;6.03;1.85;;;;;;;18.77;45.21;99506.50;16103229;19;129641;-39
2023/10/28 14:02:10;;;;;;;9.32;2.08;;;;;;;18.79;45.31;99500.69;16105221;19;130864;-39
2023/10/28 14:07:32;;;;;;;8.68;2.20;;;;;;;18.79;45.11;99499.88;16104705;19;130265;-39
2023/10/28 14:12:54;;;;;;;12.50;2.42;;;;;;;18.77;45.16;99503.75;16093503;19;129662;-39
2023/10/28 14:18:18;;;;;;;8.85;2.40;;;;;;;18.77;44.95;99506.50;16095740;19;132368;-39
2023/10/28 14:23:40;;;;;;;7.55;2.05;;;;;;;18.77;44.83;99508.44;16096735;19;131109;-39
2023/10/28 14:29:02;;;;;;;8.90;2.10;;;;;;;18.76;44.62;99502.09;16099224;19;129890;-41
2023/10/28 14:34:24;;;;;;;12.77;1.92;;;;;;;18.76;44.73;99499.31;16102825;19;131879;-39
2023/10/28 14:39:46;;;;;;;6.63;2.03;;;;;;;18.76;44.40;99499.31;16103906;19;129664;-39
2023/10/28 14:45:12;;;;;;;8.57;2.00;;;;;;;18.76;44.63;99498.50;16108059;19;130564;-39
2023/10/28 14:50:34;;;;;;;8.20;1.92;;;;;;;18.76;44.66;99502.09;16116415;19;130649;-40
2023/10/28 14:55:56;;;;;;;7.57;1.83;;;;;;;18.76;44.49;99498.50;16117701;19;130240;-42
2023/10/28 15:01:18;;;;;;;5.43;1.60;;;;;;;18.74;44.75;99504.31;16116103;19;130125;-40
2023/10/28 15:06:40;;;;;;;5.63;1.75;;;;;;;18.74;44.69;99495.19;16116962;19;130416;-39
2023/10/28 15:12:03;;;;;;;7.15;1.67;;;;;;;18.72;44.99;99483.53;16114028;19;133368;-39
2023/10/28 15:17:24;;;;;;;6.20;1.98;;;;;;;18.68;45.08;99472.19;16118496;19;130947;-40
2023/10/28 15:22:46;;;;;;;5.18;1.58;;;;;;;18.68;45.16;99474.97;16119079;19;130479;-39
2023/10/28 15:28:09;;;;;;;6.53;1.90;;;;;;;18.68;45.26;99454.75;16112990;19;130868;-42
2023/10/28 15:33:32;;;;;;;5.85;1.50;;;;;;;18.67;45.17;99447.53;16114279;19;131359;-42
2023/10/28 15:38:54;;;;;;;14.57;2.10;;;;;;;18.66;45.38;99457.81;16115868;19;129502;-39
2023/10/28 15:44:16;;;;;;;13.35;2.33;;;;;;;18.65;45.11;99469.16;16113798;19;129894;-41
2023/10/28 15:49:38;;;;;;;9.88;2.08;;;;;;;18.64;45.36;99471.09;16114408;19;130895;-40
2023/10/28 15:55:01;;;;;;;11.73;2.38;;;;;;;18.63;45.49;99441.75;16113216;19;130076;-40
2023/10/28 16:00:24;;;;;;;8.82;1.73;;;;;;;18.61;45.71;99444.81;16110761;19;130272;-44
2023/10/28 16:05:47;;;;;;;10.95;2.15;;;;;;;18.62;45.30;99456.69;16113988;19;130690;-40
2023/10/28 16:11:10;;;;;;;17.17;2.60;;;;;;;18.63;45.19;99463.91;16109566;19;129312;-39
2023/10/28 16:16:33;;;;;;;11.43;2.35;;;;;;;18.61;45.53;99444.81;16107104;19;130476;-39
2023/10/28 16:21:54;;;;;;;23.65;2.15;;;;;;;18.61;45.41;99455.03;16108209;19;129409;-42
2023/10/28 16:27:16;;;;;;;26.75;2.30;;;;;;;18.60;45.93;99457.00;16112464;19;133607;-40
2023/10/28 16:32:38;;;;;;;19.80;2.40;;;;;;;18.61;45.59;99460.56;16110712;19;130059;-42
2023/10/28 16:38:00;;;;;;;20.05;2.58;;;;;;;18.63;45.84;99449.22;16116428;19;130382;-41
2023/10/28 16:43:24;;;;;;;23.92;3.03;;;;;;;18.61;45.67;99464.19;16111923;19;130755;-42
2023/10/28 16:48:46;;;;;;;20.52;2.83;;;;;;;18.61;46.11;99455.88;16108206;19;131475;-41
2023/10/28 16:54:08;;;;;;;18.33;2.47;;;;;;;18.60;46.12;99450.59;16110696;19;131050;-42
2023/10/28 16:59:31;;;;;;;15.20;2.60;;;;;;;18.58;46.19;99445.34;16109256;19;130337;-41
2023/10/28 17:04:53;;;;;;;10.55;1.92;;;;;;;18.56;46.18;99438.44;16106778;19;129823;-41
2023/10/28 17:10:15;;;;;;;15.43;2.47;;;;;;;18.57;46.62;99442.88;16103284;19;130142;-40
2023/10/28 17:15:37;;;;;;;16.98;2.30;;;;;;;18.73;46.54;99432.56;16108199;19;130436;-40
2023/10/28 17:21:04;;;;;;;13.50;2.70;;;;;;;19.11;46.23;99430.16;16109070;19;129983;-40
2023/10/28 17:26:26;;;;;;;10.18;1.80;;;;;;;19.51;45.52;99416.34;16108504;19;130957;-42
2023/10/28 17:31:48;;;;;;;12.35;1.85;;;;;;;19.83;45.15;99418.56;16104926;19;133293;-41
2023/10/28 17:37:10;;;;;;;10.15;1.73;;;;;;;20.01;44.94;99418.16;16112609;19;130175;-43
2023/10/28 17:42:32;;;;;;;12.77;2.20;;;;;;;20.08;45.01;99408.38;16102752;19;130220;-40
2023/10/28 17:47:54;;;;;;;20.05;2.63;;;;;;;20.08;45.40;99401.97;16107509;19;129506;-42
2023/10/28 17:53:16;;;;;;;8.77;1.42;;;;;;;20.06;45.89;99398.69;16109595;19;131071;-40
2023/10/28 17:58:40;;;;;;;14.65;2.00;;;;;;;20.01;46.13;99396.78;16103615;19;129686;-41
2023/10/28 18:04:02;;;;;;;19.92;2.30;;;;;;;19.97;46.26;99398.47;16105408;19;131678;-42
2023/10/28 18:09:24;;;;;;;19.92;2.25;;;;;;;19.89;46.36;99399.91;16104561;19;130362;-40
2023/10/28 18:14:46;;;;;;;14.65;1.70;;;;;;;19.85;46.54;99401.63;16095785;19;130014;-41
2023/10/28 18:20:10;;;;;;;19.17;1.60;;;;;;;19.79;46.69;99388.91;16110851;19;130859;-43
2023/10/28 18:25:34;;;;;;;9.20;1.48;;;;;;;19.75;46.97;99379.50;16120635;19;129712;-43
2023/10/28 18:31:01;;;;;;;9.25;1.63;;;;;;;19.68;46.85;99374.31;16119129;19;131177;-41
2023/10/28 18:36:25;;;;;;;9.88;1.70;;;;;;;19.63;46.88;99364.09;16121964;19;129431;-40
2023/10/28 18:41:47;;;;;;;12.60;1.73;;;;;;;19.57;47.01;99345.81;16121758;19;132225;-41
2023/10/28 18:47:09;;;;;;;9.82;1.63;;;;;;;19.51;47.68;99330.34;16120053;19;131754;-41
2023/10/28 18:52:31;;;;;;;8.88;1.30;;;;;;;19.49;47.67;99329.81;16115951;19;130728;-40
2023/10/28 18:57:53;;;;;;;8.32;1.38;;;;;;;19.50;47.77;99312.06;16113704;19;130308;-41
2023/10/28 19:03:15;;;;;;;21.10;1.90;;;;;;;19.53;47.70;99301.19;16118425;19;130113;-42
2023/10/28 19:08:38;;;;;;;18.17;2.05;;;;;;;19.63;47.72;99296.69;16124811;19;131071;-40
2023/10/28 19:14:00;;;;;;;15.82;2.08;;;;;;;19.72;47.59;99291.31;16117673;19;131455;-40
2023/10/28 19:19:22;;;;;;;21.98;2.28;;;;;;;19.79;47.82;99289.03;16111349;19;130599;-40
2023/10/28 19:24:43;;;;;;;14.27;2.17;;;;;;;19.85;47.77;99282.28;16117137;19;129624;-40
2023/10/28 19:30:06;;;;;;;14.60;1.73;;;;;;;19.89;47.72;99283.34;16117615;19;129542;-41
2023/10/28 19:35:28;;;;;;;22.80;2.60;;;;;;;19.94;47.55;99263.84;16111302;19;131737;-41
2023/10/28 19:40:52;;;;;;;19.65;2.10;;;;;;;19.98;48.06;99261.34;16121169;19;130919;-40
2023/10/28 19:46:14;;;;;;;22.05;2.90;;;;;;;20.03;47.98;99254.94;16116788;19;129800;-40
2023/10/28 19:51:36;;;;;;;22.40;2.60;;;;;;;20.07;47.44;99239.31;16114343;19;130059;-43
2023/10/28 19:56:58;;;;;;;28.50;3.05;;;;;;;20.11;47.76;99240.38;16115447;19;130752;-43
2023/10/28 20:02:20;;;;;;;22.08;3.08;;;;;;;20.12;47.38;99233.69;16116824;19;129374;-40
2023/10/28 20:07:43;;;;;;;23.08;1.70;;;;;;;20.13;47.82;99227.03;16118253;19;129882;-40
2023/10/28 20:13:05;;;;;;;16.88;2.17;;;;;;;20.16;47.35;99222.81;16113247;19;131539;-42
2023/10/28 20:18:27;;;;;;;17.70;2.60;;;;;;;20.17;47.30;99217.00;16114128;19;130875;-40
2023/10/28 20:23:49;;;;;;;25.27;2.08;;;;;;;20.15;47.69;99219.22;16105447;19;131217;-41
2023/10/28 20:29:13;;;;;;;21.50;2.50;;;;;;;20.10;47.67;99211.81;16110916;19;133482;-40
2023/10/28 20:34:35;;;;;;;22.73;2.17;;;;;;;20.04;47.71;99199.09;16109672;19;131242;-40
2023/10/28 20:39:57;;;;;;;13.02;2.28;;;;;;;19.99;47.52;99186.13;16110903;19;133083;-41
2023/10/28 20:45:20;;;;;;;16.67;1.60;;;;;;;19.94;47.40;99182.56;16108583;19;129279;-41
2023/10/28 20:50:44;;;;;;;25.90;2.08;;;;;;;19.89;47.78;99182.59;16108287;19;129311;-41
2023/10/28 20:56:07;;;;;;;14.18;1.77;;;;;;;19.83;47.47;99165.19;16104622;19;129777;-43
2023/10/28 21:01:30;;;;;;;27.27;2.13;;;;;;;19.76;47.76;99156.44;16102084;19;129817;-40
2023/10/28 21:06:52;;;;;;;33.10;2.50;;;;;;;19.71;47.89;99134.28;16106940;19;130103;-41
2023/10/28 21:12:14;;;;;;;33.83;3.25;;;;;;;19.67;47.70;99114.63;16109745;19;131108;-40
2023/10/28 21:17:36;;;;;;;30.77;2.58;;;;;;;19.64;48.08;99109.69;16101199;19;129416;-40
2023/10/28 21:22:58;;;;;;;30.38;3.80;;;;;;;19.60;47.78;99103.09;16102446;19;131213;-44
2023/10/28 21:28:20;;;;;;;27.60;3.22;;;;;;;19.57;48.01;99081.50;16102536;19;129343;-40
2023/10/28 21:33:42;;;;;;;14.73;2.50;;;;;;;19.53;47.89;99065.44;16106083;19;129974;-40
2023/10/28 21:39:04;;;;;;;19.23;2.53;;;;;;;19.52;48.03;99063.78;16101158;19;130263;-41
2023/10/28 21:44:26;;;;;;;15.63;2.45;;;;;;;19.50;48.13;99066.06;16105551;19;129521;-40
2023/10/28 21:49:50;;;;;;;20.25;2.45;;;;;;;19.50;47.95;99045.81;16101329;19;130896;-40
2023/10/28 21:55:11;;;;;;;18.00;2.13;;;;;;;19.47;47.82;99032.53;15955628;19;2929565;-40
2023/10/28 22:06:01;;;;;;;15.23;1.52;;;;;;;19.47;47.97;99015.88;16108842;19;131736;-40
2023/10/28 22:11:23;;;;;;;9.48;1.55;;;;;;;19.46;47.86;99008.69;16105005;19;129374;-40
2023/10/28 22:16:45;;;;;;;7.93;1.08;;;;;;;19.45;47.94;99018.13;16106162;19;131983;-40
2023/10/28 22:22:07;;;;;;;18.35;1.50;;;;;;;19.43;47.73;99031.50;16101570;19;129954;-39
2023/10/28 22:27:29;;;;;;;13.60;1.60;;;;;;;19.38;48.20;99024.88;16101693;19;131295;-39
2023/10/28 22:32:51;;;;;;;12.85;1.60;;;;;;;19.33;48.11;99011.06;16107356;19;129705;-40
2023/10/28 22:38:13;;;;;;;8.63;1.50;;;;;;;19.28;47.78;99005.63;16095881;19;129754;-39
2023/10/28 22:43:35;;;;;;;10.90;1.13;;;;;;;19.24;48.17;98990.69;16107047;19;129756;-39
2023/10/28 22:48:57;;;;;;;9.75;1.30;;;;;;;19.20;48.16;98995.16;16102643;19;129769;-39
2023/10/28 22:54:19;;;;;;;7.00;1.05;;;;;;;19.18;47.85;99008.50;16103136;19;131886;-39
2023/10/28 22:59:42;;;;;;;10.55;1.08;;;;;;;19.14;47.96;98988.03;16105120;19;129840;-39
2023/10/28 23:05:04;;;;;;;4.60;0.68;;;;;;;19.13;48.10;98995.53;16104158;19;129567;-39
2023/10/28 23:10:27;;;;;;;3.85;0.88;;;;;;;19.12;47.86;98990.25;16102472;19;129763;-39
2023/10/28 23:15:48;;;;;;;3.63;0.80;;;;;;;19.10;47.80;98985.03;16104940;19;132848;-40
2023/10/28 23:21:12;;;;;;;5.45;0.80;;;;;;;19.08;47.82;99001.13;16104743;19;130729;-39
2023/10/28 23:26:34;;;;;;;4.32;1.17;;;;;;;19.05;47.81;98997.00;16119338;19;130460;-39
2023/10/28 23:31:56;;;;;;;5.18;0.75;;;;;;;19.04;48.07;99006.44;16117383;19;129759;-39
2023/10/28 23:37:18;;;;;;;1.60;0.68;;;;;;;19.03;47.69;99012.25;16108649;19;131241;-39
2023/10/28 23:42:40;;;;;;;4.28;1.00;;;;;;;19.01;48.14;98997.91;16114661;19;129454;-39
2023/10/28 23:48:05;;;;;;;3.17;0.60;;;;;;;19.00;47.75;98997.06;16116916;19;130118;-42
2023/10/28 23:53:27;;;;;;;2.88;0.60;;;;;;;18.98;47.54;98996.53;16108710;19;130906;-39
2023/10/28 23:58:49;;;;;;;4.57;0.50;;;;;;;18.97;47.85;98947.75;16112209;19;131105;-39
